createdAt,value
2018-03-03T00:02:15.647Z,97292.06
2018-03-03T00:04:46.781Z,97288.37
2018-03-03T00:07:17.865Z,97293.96
2018-03-03T00:09:49.946Z,97292.91
2018-03-03T00:12:21.020Z,97291.78
2018-03-03T00:14:52.128Z,97290.95
2018-03-03T00:17:24.018Z,97287.43
2018-03-03T00:19:55.825Z,97293.48
2018-03-03T00:22:34.533Z,97289.52
2018-03-03T00:25:06.242Z,97297.69
2018-03-03T00:27:38.725Z,97295.37
2018-03-03T00:30:09.936Z,97287.56
2018-03-03T00:32:42.124Z,97291.12
2018-03-03T00:35:14.072Z,97293.19
2018-03-03T00:37:45.631Z,97285.34
2018-03-03T00:40:17.503Z,97286.52
2018-03-03T00:42:49.634Z,97288.07
2018-03-03T00:45:20.772Z,97292.08
2018-03-03T00:47:52.989Z,97293.21
2018-03-03T00:50:24.593Z,97289.58
2018-03-03T00:52:56.214Z,97289.06
2018-03-03T00:55:27.596Z,97290.34
2018-03-03T00:58:02.636Z,97282.07
2018-03-03T01:00:37.310Z,97285.58
2018-03-03T01:03:08.941Z,97286.97
2018-03-03T01:05:40.933Z,97285.69
2018-03-03T01:08:12.496Z,97286.99
2018-03-03T01:10:43.596Z,97283.23
2018-03-03T01:13:15.039Z,97287.80
2018-03-03T01:15:46.197Z,97278.73
2018-03-03T01:18:18.397Z,97281.86
2018-03-03T01:20:50.204Z,97284.61
2018-03-03T01:23:22.078Z,97284.75
2018-03-03T01:25:54.395Z,97286.41
2018-03-03T01:28:25.892Z,97283.88
2018-03-03T01:30:57.061Z,97280.46
2018-03-03T01:33:29.008Z,97272.53
2018-03-03T01:36:01.241Z,97269.84
2018-03-03T01:38:32.596Z,97275.23
2018-03-03T01:41:04.500Z,97266.59
2018-03-03T01:43:50.892Z,97269.16
2018-03-03T01:46:22.892Z,97272.47
2018-03-03T01:48:54.409Z,97266.95
2018-03-03T01:51:34.258Z,97274.44
2018-03-03T01:54:05.888Z,97274.98
2018-03-03T01:56:38.010Z,97270.56
2018-03-03T01:59:10.136Z,97271.48
2018-03-03T02:01:41.301Z,97276.38
2018-03-03T02:04:13.879Z,97278.02
2018-03-03T02:06:45.636Z,97272.80
2018-03-03T02:09:17.362Z,97260.98
2018-03-03T02:11:49.294Z,97259.92
2018-03-03T02:14:20.889Z,97269.34
2018-03-03T02:16:52.873Z,97271.95
2018-03-03T02:19:24.409Z,97263.27
2018-03-03T02:21:56.031Z,97258.77
2018-03-03T02:24:28.066Z,97259.22
2018-03-03T02:27:01.049Z,97249.13
2018-03-03T02:29:32.245Z,97243.88
2018-03-03T02:32:04.010Z,97242.49
2018-03-03T02:34:36.424Z,97227.45
2018-03-03T02:37:07.652Z,97225.47
2018-03-03T02:39:39.807Z,97223.30
2018-03-03T02:42:12.106Z,97232.58
2018-03-03T02:44:43.671Z,97240.77
2018-03-03T02:47:15.513Z,97243.64
2018-03-03T02:49:46.950Z,97244.84
2018-03-03T02:52:19.011Z,97246.62
2018-03-03T02:54:50.893Z,97239.70
2018-03-03T02:57:22.651Z,97238.58
2018-03-03T02:59:54.384Z,97249.20
2018-03-03T03:02:25.858Z,97254.55
2018-03-03T03:04:57.431Z,97252.30
2018-03-03T03:07:29.117Z,97250.58
2018-03-03T03:10:00.647Z,97251.25
2018-03-03T03:12:32.501Z,97252.33
2018-03-03T03:15:05.185Z,97256.67
2018-03-03T03:17:37.057Z,97251.27
2018-03-03T03:20:09.096Z,97253.70
2018-03-03T03:22:40.936Z,97253.55
2018-03-03T03:25:12.789Z,97251.96
2018-03-03T03:27:44.760Z,97253.59
2018-03-03T03:30:15.926Z,97254.28
2018-03-03T03:32:47.516Z,97250.13
2018-03-03T03:35:19.521Z,97247.47
2018-03-03T03:37:51.280Z,97247.48
2018-03-03T03:40:23.122Z,97239.14
2018-03-03T03:42:54.728Z,97240.98
2018-03-03T03:45:26.488Z,97236.13
2018-03-03T03:47:59.678Z,97234.63
2018-03-03T03:50:31.640Z,97234.23
2018-03-03T03:53:05.329Z,97216.69
2018-03-03T03:55:37.396Z,97224.98
2018-03-03T03:58:09.386Z,97227.34
2018-03-03T04:00:41.152Z,97222.77
2018-03-03T04:03:13.085Z,97220.41
2018-03-03T04:05:44.869Z,97220.41
2018-03-03T04:08:16.066Z,97216.53
2018-03-03T04:10:47.210Z,97215.01
2018-03-03T04:13:18.710Z,97205.59
2018-03-03T04:15:49.876Z,97199.91
2018-03-03T04:18:21.509Z,97200.58
2018-03-03T04:20:53.190Z,97191.88
2018-03-03T04:23:24.606Z,97191.59
2018-03-03T04:26:10.885Z,97194.33
2018-03-03T04:28:42.681Z,97194.05
2018-03-03T04:31:14.821Z,97195.10
2018-03-03T04:33:46.042Z,97192.35
2018-03-03T04:36:17.737Z,97188.33
2018-03-03T04:38:49.837Z,97176.95
2018-03-03T04:41:26.356Z,97186.16
2018-03-03T04:44:03.391Z,97180.64
2018-03-03T04:46:42.296Z,97187.16
2018-03-03T04:49:13.594Z,97182.27
2018-03-03T04:51:45.668Z,97172.70
2018-03-03T04:54:17.209Z,97167.69
2018-03-03T04:57:02.213Z,97162.93
2018-03-03T04:59:33.545Z,97168.73
2018-03-03T05:02:13.489Z,97165.81
2018-03-03T05:04:44.891Z,97160.89
2018-03-03T05:07:17.034Z,97163.86
2018-03-03T05:09:49.196Z,97168.48
2018-03-03T05:12:21.504Z,97162.00
2018-03-03T05:14:53.253Z,97160.76
2018-03-03T05:17:25.537Z,97156.91
2018-03-03T05:19:58.037Z,97157.13
2018-03-03T05:22:29.439Z,97152.90
2018-03-03T05:25:03.361Z,97153.86
2018-03-03T05:27:35.203Z,97154.84
2018-03-03T05:30:08.007Z,97148.19
2018-03-03T05:32:40.797Z,97148.30
2018-03-03T05:35:12.758Z,97145.72
2018-03-03T05:37:51.674Z,97142.45
2018-03-03T05:40:23.300Z,97132.48
2018-03-03T05:42:55.132Z,97139.47
2018-03-03T05:45:28.684Z,97135.52
2018-03-03T05:48:02.752Z,97132.73
2018-03-03T05:50:34.437Z,97129.33
2018-03-03T05:53:07.497Z,97136.02
2018-03-03T05:55:39.833Z,97134.98
2018-03-03T05:58:14.044Z,97135.75
2018-03-03T06:00:47.558Z,97136.98
2018-03-03T06:03:19.895Z,97146.58
2018-03-03T06:05:51.379Z,97150.48
2018-03-03T06:08:23.512Z,97145.45
2018-03-03T06:10:55.416Z,97148.89
2018-03-03T06:13:26.620Z,97149.80
2018-03-03T06:15:57.818Z,97155.83
2018-03-03T06:18:30.205Z,97146.17
2018-03-03T06:21:08.872Z,97148.97
2018-03-03T06:23:40.429Z,97152.34
2018-03-03T06:26:11.909Z,97154.39
2018-03-03T06:28:43.478Z,97160.51
2018-03-03T06:31:15.144Z,97155.66
2018-03-03T06:33:46.888Z,97158.30
2018-03-03T06:36:18.557Z,97157.86
2018-03-03T06:38:50.321Z,97159.08
2018-03-03T06:41:21.871Z,97156.57
2018-03-03T06:43:53.142Z,97161.91
2018-03-03T06:46:24.463Z,97163.23
2018-03-03T06:48:56.094Z,97165.00
2018-03-03T06:51:27.533Z,97170.70
2018-03-03T06:53:58.745Z,97169.32
2018-03-03T06:56:29.993Z,97166.92
2018-03-03T06:59:02.774Z,97170.32
2018-03-03T07:01:33.961Z,97173.02
2018-03-03T07:04:07.069Z,97166.76
2018-03-03T07:06:38.825Z,97165.22
2018-03-03T07:09:11.062Z,97173.28
2018-03-03T07:11:43.319Z,97177.78
2018-03-03T07:14:14.937Z,97176.22
2018-03-03T07:16:46.713Z,97175.02
2018-03-03T07:19:18.087Z,97177.23
2018-03-03T07:21:49.462Z,97178.09
2018-03-03T07:24:21.076Z,97184.04
2018-03-03T07:26:52.309Z,97187.38
2018-03-03T07:29:23.502Z,97174.04
2018-03-03T07:31:55.632Z,97171.67
2018-03-03T07:34:26.798Z,97169.17
2018-03-03T07:37:00.767Z,97170.34
2018-03-03T07:39:32.082Z,97179.78
2018-03-03T07:42:04.866Z,97173.50
2018-03-03T07:44:36.168Z,97170.48
2018-03-03T07:47:07.376Z,97174.27
2018-03-03T07:49:39.495Z,97175.84
2018-03-03T07:52:10.671Z,97174.47
2018-03-03T07:54:41.982Z,97171.97
2018-03-03T07:57:22.811Z,97166.64
2018-03-03T07:59:54.713Z,97159.69
2018-03-03T08:02:26.340Z,97165.16
2018-03-03T08:04:57.610Z,97159.02
2018-03-03T08:07:29.184Z,97172.63
2018-03-03T08:10:01.835Z,97169.95
2018-03-03T08:12:33.078Z,97163.21
2018-03-03T08:15:05.220Z,97161.72
2018-03-03T08:17:36.555Z,97159.98
2018-03-03T08:20:08.563Z,97156.83
2018-03-03T08:22:39.675Z,97158.84
2018-03-03T08:25:11.924Z,97164.87
2018-03-03T08:27:43.134Z,97169.89
2018-03-03T08:30:14.743Z,97169.32
2018-03-03T08:32:45.897Z,97174.78
2018-03-03T08:35:17.023Z,97169.46
2018-03-03T08:37:48.671Z,97176.50
2018-03-03T08:40:19.806Z,97172.90
2018-03-03T08:42:51.743Z,97175.34
2018-03-03T08:45:23.266Z,97172.08
2018-03-03T08:47:55.334Z,97167.82
2018-03-03T08:50:26.790Z,97165.17
2018-03-03T08:52:58.622Z,97169.53
2018-03-03T08:55:31.892Z,97171.31
2018-03-03T08:58:05.785Z,97173.09
2018-03-03T09:00:37.008Z,97165.77
2018-03-03T09:03:09.612Z,97172.92
2018-03-03T09:05:40.774Z,97175.33
2018-03-03T09:08:12.217Z,97175.00
2018-03-03T09:10:43.626Z,97181.81
2018-03-03T09:13:15.007Z,97179.06
2018-03-03T09:15:47.545Z,97180.18
2018-03-03T09:18:20.037Z,97179.56
2018-03-03T09:20:51.200Z,97177.80
2018-03-03T09:23:22.892Z,97179.63
2018-03-03T09:25:54.090Z,97176.36
2018-03-03T09:28:25.277Z,97177.13
2018-03-03T09:30:56.740Z,97171.89
2018-03-03T09:33:27.941Z,97165.30
2018-03-03T09:36:00.125Z,97178.02
2018-03-03T09:38:32.259Z,97172.98
2018-03-03T09:41:03.439Z,97176.43
2018-03-03T09:43:34.629Z,97173.16
2018-03-03T09:46:05.905Z,97173.59
2018-03-03T09:48:37.119Z,97172.92
2018-03-03T09:51:08.337Z,97173.97
2018-03-03T09:53:39.749Z,97175.00
2018-03-03T09:56:11.352Z,97175.47
2018-03-03T09:58:42.539Z,97173.34
2018-03-03T10:01:14.114Z,97172.92
2018-03-03T10:03:45.696Z,97175.02
2018-03-03T10:06:16.849Z,97174.37
2018-03-03T10:08:48.065Z,97184.74
2018-03-03T10:11:19.436Z,97183.73
2018-03-03T10:13:50.605Z,97178.28
2018-03-03T10:16:22.229Z,97182.38
2018-03-03T10:18:53.493Z,97186.42
2018-03-03T10:21:24.925Z,97183.38
2018-03-03T10:23:56.651Z,97181.80
2018-03-03T10:26:27.830Z,97186.45
2018-03-03T10:28:59.336Z,97190.67
2018-03-03T10:31:30.529Z,97178.03
2018-03-03T10:34:01.720Z,97186.84
2018-03-03T10:36:33.422Z,97187.91
2018-03-03T10:39:04.816Z,97186.98
2018-03-03T10:41:36.269Z,97184.42
2018-03-03T10:44:07.509Z,97186.39
2018-03-03T10:46:38.539Z,97187.02
2018-03-03T10:49:12.720Z,97186.19
2018-03-03T10:51:43.866Z,97190.78
2018-03-03T10:54:15.104Z,97196.94
2018-03-03T10:56:46.607Z,97189.75
2018-03-03T10:59:17.800Z,97186.83
2018-03-03T11:01:48.941Z,97190.72
2018-03-03T11:04:20.478Z,97190.48
2018-03-03T11:06:51.778Z,97185.77
2018-03-03T11:09:22.984Z,97183.02
2018-03-03T11:11:54.546Z,97186.48
2018-03-03T11:14:25.712Z,97186.94
2018-03-03T11:16:56.850Z,97190.23
2018-03-03T11:19:28.282Z,97189.75
2018-03-03T11:21:59.403Z,97188.39
2018-03-03T11:24:30.810Z,97188.44
2018-03-03T11:27:02.326Z,97190.78
2018-03-03T11:29:33.458Z,97195.23
2018-03-03T11:32:04.827Z,97197.83
2018-03-03T11:34:35.950Z,97194.88
2018-03-03T11:37:07.129Z,97189.41
2018-03-03T11:39:38.257Z,97183.06
2018-03-03T11:42:09.574Z,97184.78
2018-03-03T11:44:40.845Z,97177.69
2018-03-03T11:47:12.241Z,97179.74
2018-03-03T11:49:43.516Z,97175.92
2018-03-03T11:52:19.362Z,97180.84
2018-03-03T11:54:50.125Z,97174.09
2018-03-03T11:57:21.316Z,97183.55
2018-03-03T11:59:52.337Z,97169.98
2018-03-03T12:02:24.177Z,97163.02
2018-03-03T12:04:55.421Z,97167.77
2018-03-03T12:07:26.617Z,97173.79
2018-03-03T12:09:58.386Z,97165.56
2018-03-03T12:12:29.605Z,97178.77
2018-03-03T12:15:00.921Z,97179.44
2018-03-03T12:17:33.014Z,97173.64
2018-03-03T12:20:07.259Z,97179.38
2018-03-03T12:22:38.705Z,97177.50
2018-03-03T12:25:11.374Z,97168.35
2018-03-03T12:27:42.244Z,97163.54
2018-03-03T12:30:13.889Z,97160.57
2018-03-03T12:32:44.640Z,97165.34
2018-03-03T12:35:15.701Z,97157.61
2018-03-03T12:37:46.539Z,97155.97
2018-03-03T12:40:17.785Z,97156.84
2018-03-03T12:42:49.024Z,97146.40
2018-03-03T12:45:20.855Z,97159.96
2018-03-03T12:47:51.766Z,97164.88
2018-03-03T12:50:23.664Z,97159.25
2018-03-03T12:52:54.469Z,97159.16
2018-03-03T12:55:25.346Z,97159.05
2018-03-03T12:57:57.054Z,97155.25
2018-03-03T13:00:27.835Z,97149.98
2018-03-03T13:02:59.305Z,97156.14
2018-03-03T13:05:30.786Z,97161.80
2018-03-03T13:08:02.513Z,97164.75
2018-03-03T13:10:33.687Z,97166.94
2018-03-03T13:13:05.417Z,97175.61
2018-03-03T13:15:36.726Z,97163.17
2018-03-03T13:18:07.868Z,97165.66
2018-03-03T13:20:38.703Z,97168.83
2018-03-03T13:23:09.963Z,97165.52
2018-03-03T13:25:40.818Z,97159.89
2018-03-03T13:28:12.565Z,97168.02
2018-03-03T13:30:43.360Z,97157.30
2018-03-03T13:33:14.162Z,97151.10
2018-03-03T13:35:45.431Z,97162.31
2018-03-03T13:38:16.842Z,97156.80
2018-03-03T13:40:47.631Z,97155.53
2018-03-03T13:43:20.049Z,97154.95
2018-03-03T13:45:50.777Z,97157.50
2018-03-03T13:48:21.697Z,97156.97
2018-03-03T13:50:52.861Z,97157.39
2018-03-03T13:53:23.763Z,97158.49
2018-03-03T13:55:55.601Z,97159.03
2018-03-03T13:58:28.585Z,97158.63
2018-03-03T14:01:00.051Z,97165.80
2018-03-03T14:03:31.212Z,97166.05
2018-03-03T14:06:05.237Z,97163.61
2018-03-03T14:08:36.314Z,97173.05
2018-03-03T14:11:07.089Z,97179.70
2018-03-03T14:13:38.119Z,97181.14
2018-03-03T14:16:09.354Z,97187.09
2018-03-03T14:18:40.604Z,97187.44
2018-03-03T14:21:11.946Z,97180.80
2018-03-03T14:23:43.020Z,97180.52
2018-03-03T14:26:13.915Z,97181.66
2018-03-03T14:28:44.749Z,97179.01
2018-03-03T14:31:15.874Z,97188.03
2018-03-03T14:33:47.281Z,97196.34
2018-03-03T14:36:19.313Z,97192.41
2018-03-03T14:38:50.113Z,97198.59
2018-03-03T14:41:20.959Z,97199.30
2018-03-03T14:43:52.230Z,97201.88
2018-03-03T14:46:23.093Z,97207.52
2018-03-03T14:48:53.860Z,97207.05
2018-03-03T14:51:25.141Z,97212.52
2018-03-03T14:53:56.029Z,97212.94
2018-03-03T14:56:27.337Z,97212.42
2018-03-03T14:58:58.427Z,97215.47
2018-03-03T15:01:29.350Z,97210.80
2018-03-03T15:04:02.141Z,97208.22
2018-03-03T15:06:32.909Z,97207.92
2018-03-03T15:09:06.317Z,97212.81
2018-03-03T15:11:37.469Z,97210.98
2018-03-03T15:14:08.345Z,97213.02
2018-03-03T15:16:39.968Z,97208.25
2018-03-03T15:19:11.099Z,97208.27
2018-03-03T15:21:42.018Z,97207.67
2018-03-03T15:24:13.097Z,97211.64
2018-03-03T15:26:43.844Z,97211.63
2018-03-03T15:29:14.675Z,97213.18
2018-03-03T15:31:50.713Z,97221.72
2018-03-03T15:34:26.977Z,97214.72
2018-03-03T15:36:58.231Z,97216.67
2018-03-03T15:42:05.666Z,97230.57
2018-03-03T15:44:36.482Z,97224.35
2018-03-03T15:47:14.082Z,97229.63
2018-03-03T15:49:48.049Z,97233.56
2018-03-03T15:52:20.638Z,97231.48
2018-03-03T15:54:51.509Z,97237.97
2018-03-03T15:57:26.580Z,97234.41
2018-03-03T15:59:57.476Z,97240.18
2018-03-03T16:02:28.613Z,97242.23
2018-03-03T16:04:59.787Z,97244.24
2018-03-03T16:07:31.247Z,97240.80
2018-03-03T16:10:02.426Z,97239.04
2018-03-03T16:12:33.277Z,97248.94
2018-03-03T16:15:05.195Z,97254.63
2018-03-03T16:17:36.411Z,97247.54
2018-03-03T16:20:07.493Z,97260.62
2018-03-03T16:22:38.646Z,97258.25
2018-03-03T16:25:09.969Z,97266.64
2018-03-03T16:27:40.799Z,97277.38
2018-03-03T16:30:11.958Z,97280.05
2018-03-03T16:32:42.968Z,97288.04
2018-03-03T16:35:14.265Z,97289.86
2018-03-03T16:37:45.417Z,97293.23
2018-03-03T16:40:16.812Z,97296.94
2018-03-03T16:42:47.649Z,97295.41
2018-03-03T16:45:19.250Z,97295.86
2018-03-03T16:47:50.434Z,97291.05
2018-03-03T16:50:21.557Z,97296.69
2018-03-03T16:52:53.208Z,97303.40
2018-03-03T16:55:24.106Z,97302.30
2018-03-03T16:57:55.440Z,97300.33
2018-03-03T17:00:26.254Z,97308.29
2018-03-03T17:02:57.098Z,97309.40
2018-03-03T17:05:28.629Z,97308.91
2018-03-03T17:07:59.441Z,97313.02
2018-03-03T17:10:30.269Z,97316.51
2018-03-03T17:13:01.401Z,97315.78
2018-03-03T17:15:32.314Z,97319.13
2018-03-03T17:18:04.150Z,97323.13
2018-03-03T17:20:35.066Z,97328.52
2018-03-03T17:23:06.446Z,97329.05
2018-03-03T17:26:07.621Z,97335.77
2018-03-03T17:28:39.127Z,97341.50
2018-03-03T17:31:10.193Z,97334.25
2018-03-03T17:33:41.116Z,97340.77
2018-03-03T17:36:12.050Z,97331.18
2018-03-03T17:38:43.233Z,97335.13
2018-03-03T17:41:14.169Z,97340.77
2018-03-03T17:43:45.462Z,97340.20
2018-03-03T17:46:17.063Z,97343.73
2018-03-03T17:48:48.213Z,97348.91
2018-03-03T17:51:19.117Z,97350.03
2018-03-03T17:53:50.057Z,97350.39
2018-03-03T17:56:21.370Z,97352.66
2018-03-03T17:58:52.247Z,97349.73
2018-03-03T18:01:23.086Z,97350.63
2018-03-03T18:03:54.350Z,97349.64
2018-03-03T18:06:25.542Z,97354.06
2018-03-03T18:08:56.373Z,97355.35
2018-03-03T18:11:27.497Z,97350.58
2018-03-03T18:13:58.373Z,97361.80
2018-03-03T18:16:29.801Z,97358.06
2018-03-03T18:19:02.133Z,97354.88
2018-03-03T18:21:35.722Z,97356.66
2018-03-03T18:24:11.444Z,97360.16
2018-03-03T18:26:43.204Z,97346.81
2018-03-03T18:29:14.750Z,97359.55
2018-03-03T18:31:46.010Z,97357.04
2018-03-03T18:34:16.830Z,97350.09
2018-03-03T18:36:47.932Z,97349.82
2018-03-03T18:39:19.774Z,97350.09
2018-03-03T18:41:50.881Z,97344.80
2018-03-03T18:44:21.713Z,97344.44
2018-03-03T18:46:52.498Z,97341.98
2018-03-03T18:49:23.588Z,97348.97
2018-03-03T18:51:55.067Z,97349.66
2018-03-03T18:54:25.849Z,97350.05
2018-03-03T18:56:56.948Z,97349.14
2018-03-03T18:59:27.757Z,97349.66
2018-03-03T19:01:58.629Z,97347.09
2018-03-03T19:04:29.818Z,97344.20
2018-03-03T19:07:02.255Z,97347.05
2018-03-03T19:09:33.081Z,97349.42
2018-03-03T19:12:03.924Z,97344.43
2018-03-03T19:14:35.064Z,97346.20
2018-03-03T19:17:05.975Z,97342.13
2018-03-03T19:19:36.818Z,97341.80
2018-03-03T19:22:07.878Z,97344.09
2018-03-03T19:24:38.732Z,97346.89
2018-03-03T19:27:10.389Z,97345.02
2018-03-03T19:29:41.311Z,97341.06
2018-03-03T19:32:12.067Z,97341.32
2018-03-03T19:34:43.357Z,97345.67
2018-03-03T19:37:14.509Z,97353.11
2018-03-03T19:39:45.343Z,97352.00
2018-03-03T19:42:16.190Z,97357.95
2018-03-03T19:44:47.034Z,97353.27
2018-03-03T19:47:18.042Z,97356.31
2018-03-03T19:49:48.889Z,97360.07
2018-03-03T19:52:19.721Z,97359.66
2018-03-03T19:54:50.961Z,97361.23
2018-03-03T19:57:21.864Z,97363.97
2018-03-03T19:59:52.628Z,97364.79
2018-03-03T20:02:23.513Z,97371.52
2018-03-03T20:04:54.444Z,97366.84
2018-03-03T20:07:25.359Z,97370.44
2018-03-03T20:09:56.540Z,97361.60
2018-03-03T20:12:27.369Z,97374.41
2018-03-03T20:14:58.296Z,97379.45
2018-03-03T20:17:29.431Z,97385.14
2018-03-03T20:20:00.381Z,97383.58
2018-03-03T20:22:31.403Z,97376.94
2018-03-03T20:25:02.245Z,97380.63
2018-03-03T20:27:33.068Z,97384.47
2018-03-03T20:30:08.309Z,97383.42
2018-03-03T20:32:39.078Z,97389.23
2018-03-03T20:35:09.979Z,97384.20
2018-03-03T20:37:41.077Z,97386.53
2018-03-03T20:40:11.900Z,97389.53
2018-03-03T20:42:43.393Z,97394.02
2018-03-03T20:45:15.105Z,97389.88
2018-03-03T20:47:45.865Z,97382.24
2018-03-03T20:50:17.212Z,97386.83
2018-03-03T20:52:48.000Z,97388.17
2018-03-03T20:55:20.296Z,97382.47
2018-03-03T20:57:51.633Z,97380.80
2018-03-03T21:00:22.484Z,97380.38
2018-03-03T21:02:53.398Z,97380.50
2018-03-03T21:05:24.728Z,97379.06
2018-03-03T21:07:55.581Z,97374.78
2018-03-03T21:10:27.035Z,97378.78
2018-03-03T21:12:58.249Z,97378.44
2018-03-03T21:15:29.054Z,97376.95
2018-03-03T21:18:02.776Z,97379.27
2018-03-03T21:20:33.645Z,97381.80
2018-03-03T21:23:06.852Z,97382.52
2018-03-03T21:25:37.723Z,97375.31
2018-03-03T21:28:09.401Z,97374.63
2018-03-03T21:30:40.712Z,97374.13
2018-03-03T21:33:15.421Z,97378.53
2018-03-03T21:35:46.467Z,97372.91
2018-03-03T21:38:17.529Z,97377.13
2018-03-03T21:40:48.433Z,97371.83
2018-03-03T21:43:19.716Z,97374.23
2018-03-03T21:45:50.549Z,97375.10
2018-03-03T21:48:21.650Z,97376.48
2018-03-03T21:50:53.029Z,97380.55
2018-03-03T21:53:23.929Z,97383.41
2018-03-03T21:55:55.073Z,97373.19
2018-03-03T21:58:26.449Z,97383.44
2018-03-03T22:00:57.536Z,97370.67
2018-03-03T22:03:28.380Z,97375.22
2018-03-03T22:06:00.869Z,97367.89
2018-03-03T22:08:33.901Z,97370.42
2018-03-03T22:11:06.348Z,97366.93
2018-03-03T22:13:39.461Z,97360.27
2018-03-03T22:16:11.199Z,97367.56
2018-03-03T22:18:42.392Z,97362.75
2018-03-03T22:21:19.864Z,97363.95
2018-03-03T22:23:51.450Z,97360.25
2018-03-03T22:26:22.637Z,97355.45
2018-03-03T22:28:54.055Z,97360.30
2018-03-03T22:31:25.345Z,97365.12
2018-03-03T22:33:56.497Z,97369.84
2018-03-03T22:36:28.214Z,97376.30
2018-03-03T22:39:00.705Z,97374.76
2018-03-03T22:41:31.541Z,97378.22
2018-03-03T22:44:03.980Z,97367.39
2018-03-03T22:46:35.906Z,97365.89
2018-03-03T22:49:07.117Z,97363.22
2018-03-03T22:51:38.249Z,97367.97
2018-03-03T22:54:09.639Z,97369.30
2018-03-03T22:56:40.921Z,97365.30
2018-03-03T22:59:11.971Z,97366.27
2018-03-03T23:01:43.222Z,97362.87
2018-03-03T23:04:14.364Z,97363.78
2018-03-03T23:06:45.439Z,97367.94
2018-03-03T23:09:16.987Z,97368.52
2018-03-03T23:11:48.097Z,97371.69
2018-03-03T23:14:19.248Z,97383.91
2018-03-03T23:16:50.448Z,97390.81
2018-03-03T23:19:21.500Z,97392.89
2018-03-03T23:21:53.468Z,97395.39
2018-03-03T23:24:25.314Z,97396.19
2018-03-03T23:26:56.396Z,97393.04
2018-03-03T23:29:28.157Z,97396.38
2018-03-03T23:32:00.117Z,97398.20
2018-03-03T23:34:31.240Z,97394.90
2018-03-03T23:37:02.304Z,97391.17
2018-03-03T23:39:33.821Z,97387.84
2018-03-03T23:42:05.438Z,97390.96
2018-03-03T23:44:37.481Z,97385.84
2018-03-03T23:47:09.637Z,97396.67
2018-03-03T23:49:40.724Z,97393.94
2018-03-03T23:52:12.949Z,97397.73
2018-03-03T23:54:44.762Z,97397.05
2018-03-03T23:57:15.917Z,97396.72
2018-03-03T23:59:47.804Z,97399.69
